createdAt,value
2019-03-26T00:00:02.881Z,89.26
2019-03-26T00:05:11.964Z,89.26
2019-03-26T00:10:13.969Z,89.45
2019-03-26T00:15:07.299Z,89.13
2019-03-26T00:20:07.475Z,89.3
2019-03-26T00:25:06.169Z,89.65
2019-03-26T00:30:05.801Z,89.73
2019-03-26T00:35:07.693Z,89.44
2019-03-26T00:40:09.950Z,90.02
2019-03-26T00:45:04.679Z,89.68
2019-03-26T00:50:09.843Z,89.84
2019-03-26T00:55:21.565Z,89.6
2019-03-26T01:00:04.932Z,89.71
2019-03-26T01:05:08.840Z,89.54
2019-03-26T01:10:08.540Z,90.03
2019-03-26T01:15:04.789Z,89.84
2019-03-26T01:20:06.270Z,89.84
2019-03-26T01:25:06.334Z,90.05
2019-03-26T01:30:03.500Z,90.18
2019-03-26T01:35:06.015Z,90.34
2019-03-26T01:40:05.784Z,90.71
2019-03-26T01:45:03.835Z,89.94
2019-03-26T01:50:06.416Z,90.25
2019-03-26T01:55:05.273Z,90.09
2019-03-26T02:00:06.262Z,89.71
2019-03-26T02:05:07.076Z,89.6
2019-03-26T02:10:05.803Z,89.62
2019-03-26T02:15:04.957Z,89.29
2019-03-26T02:20:08.489Z,89.58
2019-03-26T02:25:18.317Z,89.44
2019-03-26T02:30:06.887Z,88.97
2019-03-26T02:35:23.085Z,88.6
2019-03-26T02:40:04.011Z,88.6
2019-03-26T02:45:06.959Z,88.46
2019-03-26T02:50:07.282Z,88.85
2019-03-26T02:55:07.785Z,88.71
2019-03-26T03:00:04.388Z,88.22
2019-03-26T03:05:07.888Z,87.94
2019-03-26T03:10:07.260Z,88.01
2019-03-26T03:15:03.937Z,88.19
2019-03-26T03:20:08.993Z,87.63
2019-03-26T03:25:12.559Z,88
2019-03-26T03:30:07.667Z,87.33
2019-03-26T03:35:12.888Z,87.04
2019-03-26T03:40:14.866Z,87.24
2019-03-26T03:45:04.848Z,87.23
2019-03-26T03:50:12.418Z,88.13
2019-03-26T03:55:11.491Z,88.03
2019-03-26T04:00:08.869Z,86.92
2019-03-26T04:05:12.947Z,86.34
2019-03-26T04:10:04.321Z,84.82
2019-03-26T04:15:04.152Z,84.38
2019-03-26T04:20:12.235Z,84.69
2019-03-26T04:25:08.226Z,83.47
2019-03-26T04:30:06.237Z,83.81
2019-03-26T04:35:07.106Z,82.93
2019-03-26T04:40:09.434Z,83.5
2019-03-26T04:45:03.003Z,83.76
2019-03-26T04:50:08.780Z,84.45
2019-03-26T04:55:09.700Z,85.11
2019-03-26T05:00:03.146Z,84.85
2019-03-26T05:05:12.177Z,85.23
2019-03-26T05:10:03.342Z,85.27
2019-03-26T05:15:04.561Z,86.49
2019-03-26T05:20:05.549Z,85.66
2019-03-26T05:25:04.730Z,85.75
2019-03-26T05:30:03.243Z,86.11
2019-03-26T05:35:04.301Z,85.98
2019-03-26T05:40:04.840Z,85.8
2019-03-26T05:45:03.942Z,84.84
2019-03-26T05:50:08.988Z,84.95
2019-03-26T05:55:07.260Z,84.6
2019-03-26T06:00:03.847Z,84.15
2019-03-26T06:05:07.674Z,83.81
2019-03-26T06:10:04.542Z,82.82
2019-03-26T06:15:07.276Z,82.21
2019-03-26T06:20:08.163Z,81.98
2019-03-26T06:25:09.707Z,80.92
2019-03-26T06:30:06.594Z,81.46
2019-03-26T06:35:09.656Z,80.86
2019-03-26T06:40:08.011Z,79.96
2019-03-26T06:45:03.653Z,80.96
2019-03-26T06:50:09.073Z,81.96
2019-03-26T06:55:07.619Z,81.76
2019-03-26T07:00:06.963Z,81.51
2019-03-26T07:05:07.981Z,80.73
2019-03-26T07:10:05.737Z,81.25
2019-03-26T07:15:04.343Z,81.73
2019-03-26T07:20:06.036Z,82.5
2019-03-26T07:25:07.496Z,82.33
2019-03-26T07:30:04.179Z,83.37
2019-03-26T07:35:07.539Z,83.98
2019-03-26T07:40:08.196Z,84.55
2019-03-26T07:45:03.883Z,84.84
2019-03-26T07:50:08.191Z,84.15
2019-03-26T07:55:09.995Z,84.24
2019-03-26T08:00:04.719Z,82.01
2019-03-26T08:05:10.092Z,82.44
2019-03-26T08:10:07.761Z,81.99
2019-03-26T08:15:04.562Z,80.76
2019-03-26T08:20:07.575Z,80.12
2019-03-26T08:25:08.021Z,80.94
2019-03-26T08:30:03.815Z,80.85
2019-03-26T08:35:07.825Z,81.79
2019-03-26T08:40:07.886Z,82.47
2019-03-26T08:45:04.586Z,83.1
2019-03-26T08:50:07.807Z,82.57
2019-03-26T08:55:06.932Z,82.5
2019-03-26T09:00:02.942Z,81.55
2019-03-26T09:05:07.858Z,79.9
2019-03-26T09:10:06.609Z,80.68
2019-03-26T09:15:04.345Z,79.76
2019-03-26T09:20:06.299Z,79.39
2019-03-26T09:25:08.503Z,78.58
2019-03-26T09:30:03.070Z,78.43
2019-03-26T09:35:06.059Z,77.19
2019-03-26T09:40:06.875Z,78.55
2019-03-26T09:45:03.401Z,75.34
2019-03-26T09:50:06.345Z,75.86
2019-03-26T09:55:06.975Z,75.38
2019-03-26T10:00:02.631Z,72.5
2019-03-26T10:05:06.358Z,71.53
2019-03-26T10:10:06.954Z,70.69
2019-03-26T10:15:02.522Z,71.48
2019-03-26T10:20:06.460Z,66.99
2019-03-26T10:25:10.841Z,69.3
2019-03-26T10:30:06.504Z,71.51
2019-03-26T10:35:06.279Z,72.23
2019-03-26T10:40:06.967Z,73.12
2019-03-26T10:45:02.855Z,71.98
2019-03-26T10:50:06.573Z,72.78
2019-03-26T10:55:06.857Z,72.68
2019-03-26T11:00:03.336Z,72.72
2019-03-26T11:05:05.508Z,72.82
2019-03-26T11:10:05.720Z,70.24
2019-03-26T11:15:03.897Z,69.75
2019-03-26T11:20:05.119Z,70.18
2019-03-26T11:25:04.430Z,70.02
2019-03-26T11:30:02.968Z,70.52
2019-03-26T11:35:05.142Z,71.53
2019-03-26T11:40:04.068Z,71.72
2019-03-26T11:45:02.751Z,72.65
2019-03-26T11:50:06.933Z,72.5
2019-03-26T11:55:05.344Z,72.08
2019-03-26T12:00:05.738Z,72.05
2019-03-26T12:05:07.957Z,72.29
2019-03-26T12:10:05.037Z,72.71
2019-03-26T12:15:03.734Z,73.96
2019-03-26T12:20:06.371Z,72.44
2019-03-26T12:25:07.439Z,72.24
2019-03-26T12:30:04.214Z,72.62
2019-03-26T12:35:06.054Z,72.02
2019-03-26T12:40:06.909Z,72.37
2019-03-26T12:45:07.962Z,73.04
2019-03-26T12:50:06.044Z,72.95
2019-03-26T12:55:06.623Z,72.78
2019-03-26T13:00:04.250Z,73.92
2019-03-26T13:05:06.385Z,73.01
2019-03-26T13:10:16.402Z,70.11
2019-03-26T13:15:04.111Z,69.45
2019-03-26T13:20:07.232Z,70.21
2019-03-26T13:25:07.347Z,70.39
2019-03-26T13:30:04.065Z,70.69
2019-03-26T13:35:06.672Z,68.44
2019-03-26T13:40:09.596Z,70.79
2019-03-26T13:45:04.234Z,70.58
2019-03-26T13:50:07.803Z,70.94
2019-03-26T13:55:07.949Z,72.49
2019-03-26T14:00:03.569Z,73.19
2019-03-26T14:05:09.775Z,74.99
2019-03-26T14:10:08.026Z,74.02
2019-03-26T14:15:03.449Z,74.87
2019-03-26T14:20:07.733Z,74.79
2019-03-26T14:25:07.147Z,74.77
2019-03-26T14:30:03.999Z,74.69
2019-03-26T14:35:05.904Z,74.91
2019-03-26T14:40:07.584Z,75.19
2019-03-26T14:45:04.308Z,75.13
2019-03-26T14:50:07.370Z,75.25
2019-03-26T14:55:07.146Z,75.83
2019-03-26T15:00:04.052Z,75.88
2019-03-26T15:05:06.941Z,75.39
2019-03-26T15:10:06.244Z,75.97
2019-03-26T15:15:05.847Z,75.13
2019-03-26T15:20:09.718Z,75.81
2019-03-26T15:25:08.050Z,76.61
2019-03-26T15:30:03.809Z,75.58
2019-03-26T15:35:08.374Z,76.07
2019-03-26T15:40:06.409Z,76.49
2019-03-26T15:45:04.141Z,77.19
2019-03-26T15:50:06.038Z,77.73
2019-03-26T15:55:06.669Z,77.57
2019-03-26T16:00:04.381Z,77.81
2019-03-26T16:05:06.715Z,77.93
2019-03-26T16:10:06.585Z,76.83
2019-03-26T16:15:04.401Z,77.92
2019-03-26T16:20:07.558Z,77.97
2019-03-26T16:25:10.290Z,77.78
2019-03-26T16:30:03.368Z,76.15
2019-03-26T16:35:09.214Z,77.13
2019-03-26T16:40:07.315Z,76.64
2019-03-26T16:45:02.907Z,77.27
2019-03-26T16:50:08.647Z,77.69
2019-03-26T16:55:07.846Z,78.06
2019-03-26T17:00:03.341Z,77.42
2019-03-26T17:05:07.681Z,78.54
2019-03-26T17:10:08.160Z,78.17
2019-03-26T17:15:02.787Z,78.97
2019-03-26T17:20:07.934Z,79.47
2019-03-26T17:25:06.407Z,79.06
2019-03-26T17:30:02.955Z,78.68
2019-03-26T17:35:05.922Z,79.69
2019-03-26T17:40:06.706Z,79.68
2019-03-26T17:45:03.279Z,80.9
2019-03-26T17:50:06.325Z,80.69
2019-03-26T17:55:08.594Z,81.6
2019-03-26T18:00:03.475Z,81.67
2019-03-26T18:05:06.836Z,81.86
2019-03-26T18:10:07.485Z,82.41
2019-03-26T18:15:02.970Z,82.28
2019-03-26T18:20:06.573Z,81.96
2019-03-26T18:25:07.242Z,81.12
2019-03-26T18:30:02.818Z,82.18
2019-03-26T18:35:04.658Z,81.26
2019-03-26T18:40:05.047Z,80.9
2019-03-26T18:45:02.687Z,80.66
2019-03-26T18:50:04.470Z,80.09
2019-03-26T18:55:08.970Z,80.6
2019-03-26T19:00:03.817Z,80.38
2019-03-26T19:05:07.589Z,80.54
2019-03-26T19:10:09.646Z,80.23
2019-03-26T19:15:04.343Z,81.15
2019-03-26T19:20:06.769Z,81.2
2019-03-26T19:25:10.324Z,81.1
2019-03-26T19:30:04.027Z,81.6
2019-03-26T19:35:06.675Z,81.69
2019-03-26T19:40:09.707Z,81.95
2019-03-26T19:45:04.322Z,82.36
2019-03-26T19:50:06.889Z,82.79
2019-03-26T19:55:09.862Z,82.86
2019-03-26T20:00:04.459Z,83.15
2019-03-26T20:05:07.678Z,83
2019-03-26T20:10:09.052Z,83.2
2019-03-26T20:15:03.871Z,83.27
2019-03-26T20:20:07.281Z,83.48
2019-03-26T20:25:08.181Z,83.95
2019-03-26T20:30:03.834Z,83.82
2019-03-26T20:35:07.343Z,84.24
2019-03-26T20:40:09.401Z,84.47
2019-03-26T20:45:04.205Z,84.47
2019-03-26T20:50:08.972Z,84.64
2019-03-26T20:55:07.092Z,84.76
2019-03-26T21:00:03.907Z,84.98
2019-03-26T21:05:09.174Z,85.28
2019-03-26T21:10:03.617Z,85.8
2019-03-26T21:15:09.835Z,85.82
2019-03-26T21:20:07.879Z,85.96
2019-03-26T21:25:08.792Z,85.66
2019-03-26T21:30:15.482Z,86.24
2019-03-26T21:35:07.057Z,86.27
2019-03-26T21:40:05.954Z,86.87
2019-03-26T21:45:03.656Z,86.23
2019-03-26T21:50:07.920Z,86.37
2019-03-26T21:55:06.810Z,86.35
2019-03-26T22:00:03.292Z,86.5
2019-03-26T22:05:07.733Z,86.58
2019-03-26T22:10:07.641Z,86.54
2019-03-26T22:15:04.295Z,86.64
2019-03-26T22:20:07.402Z,86.56
2019-03-26T22:25:06.550Z,86.86
2019-03-26T22:30:03.059Z,87.29
2019-03-26T22:35:07.201Z,86.9
2019-03-26T22:40:07.633Z,87.43
2019-03-26T22:45:03.165Z,87.72
2019-03-26T22:50:07.277Z,87.54
2019-03-26T22:55:08.020Z,87.58
2019-03-26T23:00:02.568Z,87.14
2019-03-26T23:05:08.123Z,86.82
2019-03-26T23:10:06.786Z,86.91
2019-03-26T23:15:03.339Z,86.95
2019-03-26T23:20:07.607Z,86.4
2019-03-26T23:25:08.152Z,86.17
2019-03-26T23:30:02.677Z,86.5
2019-03-26T23:35:08.036Z,86.28
2019-03-26T23:40:06.343Z,87.04
2019-03-26T23:45:02.798Z,86.59
2019-03-26T23:50:07.494Z,86.78
2019-03-26T23:55:07.160Z,86.78
